createdAt,value
2023-01-29T00:01:57.086Z,17.50
2023-01-29T00:07:04.994Z,17.85
2023-01-29T00:12:10.689Z,17.17
2023-01-29T00:17:16.487Z,18.73
2023-01-29T00:22:26.433Z,18.42
2023-01-29T00:27:32.448Z,18.65
2023-01-29T00:32:38.144Z,16.88
2023-01-29T00:37:46.002Z,17.77
2023-01-29T00:43:04.198Z,16.25
2023-01-29T00:48:10.596Z,16.00
2023-01-29T00:53:18.499Z,15.60
2023-01-29T00:58:28.332Z,17.60
2023-01-29T01:03:35.452Z,18.30
2023-01-29T01:08:56.038Z,18.33
2023-01-29T01:14:02.221Z,17.88
2023-01-29T01:19:07.847Z,18.27
2023-01-29T01:24:15.975Z,17.92
2023-01-29T01:29:21.241Z,17.30
2023-01-29T01:34:27.190Z,18.15
2023-01-29T01:39:35.109Z,17.50
2023-01-29T01:44:59.380Z,18.70
2023-01-29T01:50:10.468Z,17.92
2023-01-29T01:55:21.958Z,18.27
2023-01-29T02:00:30.327Z,17.52
2023-01-29T02:05:50.486Z,18.38
2023-01-29T02:10:58.410Z,18.60
2023-01-29T02:16:03.812Z,17.92
2023-01-29T02:21:25.266Z,17.30
2023-01-29T02:26:47.812Z,17.67
2023-01-29T02:32:03.016Z,17.33
2023-01-29T02:37:14.463Z,18.20
2023-01-29T02:42:30.466Z,16.55
2023-01-29T02:47:45.874Z,17.10
2023-01-29T02:53:01.082Z,17.00
2023-01-29T02:58:12.819Z,17.83
2023-01-29T03:03:26.322Z,18.20
2023-01-29T03:08:45.672Z,18.20
2023-01-29T03:13:55.921Z,18.07
2023-01-29T03:19:08.653Z,17.90
2023-01-29T03:24:30.239Z,18.65
2023-01-29T03:29:51.389Z,18.55
2023-01-29T03:35:04.401Z,18.38
2023-01-29T03:40:13.865Z,17.83
2023-01-29T03:45:26.981Z,18.40
2023-01-29T03:50:41.608Z,18.65
2023-01-29T03:55:54.364Z,17.92
2023-01-29T04:01:04.562Z,16.63
2023-01-29T04:06:19.428Z,19.77
2023-01-29T04:11:43.904Z,17.85
2023-01-29T04:16:53.671Z,17.42
2023-01-29T04:22:14.064Z,19.05
2023-01-29T04:27:29.798Z,19.75
2023-01-29T04:32:48.121Z,20.50
2023-01-29T04:38:04.380Z,17.60
2023-01-29T04:43:12.370Z,18.80
2023-01-29T04:48:23.193Z,18.35
2023-01-29T04:53:40.210Z,18.33
2023-01-29T04:58:48.548Z,17.30
2023-01-29T05:03:56.086Z,17.85
2023-01-29T05:09:05.446Z,17.42
2023-01-29T05:14:15.158Z,18.85
2023-01-29T05:19:20.636Z,18.38
2023-01-29T05:24:29.481Z,18.17
2023-01-29T05:29:34.763Z,18.17
2023-01-29T05:34:40.046Z,18.63
2023-01-29T05:39:47.848Z,18.55
2023-01-29T05:44:53.176Z,18.65
2023-01-29T05:49:58.418Z,19.00
2023-01-29T05:55:06.605Z,18.17
2023-01-29T06:00:13.489Z,18.63
2023-01-29T06:05:18.923Z,16.77
2023-01-29T06:10:27.187Z,17.42
2023-01-29T06:15:32.474Z,17.17
2023-01-29T06:20:37.821Z,18.23
2023-01-29T06:25:45.694Z,17.23
2023-01-29T06:30:51.024Z,15.80
2023-01-29T06:36:00.422Z,17.55
2023-01-29T06:41:14.668Z,17.90
2023-01-29T06:46:20.354Z,17.45
2023-01-29T06:51:25.572Z,17.00
2023-01-29T06:56:33.803Z,18.35
2023-01-29T07:01:44.439Z,18.80
2023-01-29T07:06:49.772Z,17.43
2023-01-29T07:11:57.728Z,19.60
2023-01-29T07:17:08.255Z,19.23
2023-01-29T07:22:14.336Z,16.38
2023-01-29T07:27:22.227Z,18.13
2023-01-29T07:32:27.669Z,19.17
2023-01-29T07:37:32.993Z,19.75
2023-01-29T07:42:42.297Z,19.63
2023-01-29T07:47:47.629Z,18.35
2023-01-29T07:52:53.272Z,19.15
2023-01-29T07:58:02.855Z,18.60
2023-01-29T08:03:09.748Z,20.40
2023-01-29T08:08:15.470Z,21.52
2023-01-29T08:13:23.325Z,20.33
2023-01-29T08:18:28.567Z,20.65
2023-01-29T08:23:33.815Z,18.37
2023-01-29T08:28:41.726Z,18.58
2023-01-29T08:33:46.999Z,18.40
2023-01-29T08:38:52.211Z,18.65
2023-01-29T08:44:04.514Z,19.60
2023-01-29T08:49:12.249Z,18.53
2023-01-29T08:54:17.785Z,16.40
2023-01-29T08:59:25.647Z,18.17
2023-01-29T09:04:31.340Z,18.45
2023-01-29T09:09:37.676Z,19.70
2023-01-29T09:14:45.504Z,20.10
2023-01-29T09:19:52.286Z,18.45
2023-01-29T09:24:57.582Z,18.45
2023-01-29T09:30:05.458Z,20.17
2023-01-29T09:35:11.717Z,18.63
2023-01-29T09:40:26.507Z,18.83
2023-01-29T09:45:34.460Z,17.98
2023-01-29T09:50:43.444Z,19.95
2023-01-29T09:55:54.136Z,21.38
2023-01-29T10:01:11.546Z,19.90
2023-01-29T10:06:28.004Z,19.57
2023-01-29T10:11:45.967Z,18.05
2023-01-29T10:17:07.640Z,17.40
2023-01-29T10:22:34.310Z,18.52
2023-01-29T10:27:44.557Z,17.33
2023-01-29T10:32:53.338Z,18.80
2023-01-29T10:38:03.412Z,18.60
2023-01-29T10:43:15.752Z,19.73
2023-01-29T10:48:41.113Z,16.70
2023-01-29T10:53:56.243Z,18.75
2023-01-29T10:59:05.480Z,19.13
2023-01-29T11:04:16.252Z,17.65
2023-01-29T11:15:01.639Z,18.25
2023-01-29T11:20:35.423Z,17.50
2023-01-29T11:25:55.666Z,17.87
2023-01-29T11:31:01.204Z,18.15
2023-01-29T11:36:24.261Z,17.38
2023-01-29T11:41:29.678Z,17.25
2023-01-29T11:46:36.644Z,17.92
2023-01-29T11:51:44.635Z,16.73
2023-01-29T11:56:52.613Z,16.65
2023-01-29T12:01:59.355Z,17.05
2023-01-29T12:07:19.705Z,16.95
2023-01-29T12:12:34.438Z,17.08
2023-01-29T12:17:42.500Z,17.67
2023-01-29T12:23:01.757Z,17.08
2023-01-29T12:28:17.708Z,16.88
2023-01-29T12:33:32.180Z,19.13
2023-01-29T12:38:41.084Z,18.20
2023-01-29T12:43:50.938Z,17.93
2023-01-29T12:49:03.633Z,18.38
2023-01-29T12:54:31.391Z,18.45
2023-01-29T12:59:42.831Z,17.15
2023-01-29T13:04:53.954Z,18.98
2023-01-29T13:10:10.322Z,15.97
2023-01-29T13:15:25.511Z,18.48
2023-01-29T13:20:33.729Z,17.15
2023-01-29T13:25:41.889Z,15.50
2023-01-29T13:30:47.558Z,17.05
2023-01-29T13:36:01.767Z,16.17
2023-01-29T13:41:11.564Z,17.67
2023-01-29T13:46:21.662Z,16.00
2023-01-29T13:51:39.113Z,16.00
2023-01-29T13:57:02.379Z,16.50
2023-01-29T14:02:23.051Z,17.30
2023-01-29T14:07:53.431Z,15.63
2023-01-29T14:13:30.877Z,16.48
2023-01-29T14:18:38.441Z,13.82
2023-01-29T14:23:48.699Z,14.90
2023-01-29T14:29:03.612Z,15.23
2023-01-29T14:34:16.955Z,14.50
2023-01-29T14:39:27.434Z,15.38
2023-01-29T14:45:11.563Z,16.50
2023-01-29T14:50:49.773Z,16.02
2023-01-29T14:56:01.146Z,13.97
2023-01-29T15:01:18.622Z,16.58
2023-01-29T15:06:31.614Z,16.52
2023-01-29T15:11:43.693Z,15.48
2023-01-29T15:17:00.235Z,16.45
2023-01-29T15:22:11.262Z,15.27
2023-01-29T15:27:19.174Z,14.85
2023-01-29T15:32:32.718Z,13.75
2023-01-29T15:37:39.393Z,13.30
2023-01-29T15:42:48.608Z,12.20
2023-01-29T15:48:00.673Z,11.33
2023-01-29T15:53:13.369Z,11.32
2023-01-29T15:58:22.134Z,9.15
2023-01-29T16:03:35.271Z,10.20
2023-01-29T16:08:42.446Z,10.70
2023-01-29T16:13:49.197Z,9.40
2023-01-29T16:19:00.736Z,9.32
2023-01-29T16:24:11.951Z,9.63
2023-01-29T16:29:23.092Z,9.50
2023-01-29T16:34:44.853Z,9.80
2023-01-29T16:39:55.969Z,10.80
2023-01-29T16:45:04.643Z,9.48
2023-01-29T16:50:43.377Z,10.77
2023-01-29T16:56:05.497Z,10.13
2023-01-29T17:01:14.420Z,11.30
2023-01-29T17:06:27.446Z,10.17
2023-01-29T17:11:38.973Z,11.00
2023-01-29T17:16:53.068Z,10.93
2023-01-29T17:22:04.759Z,10.90
2023-01-29T17:27:10.427Z,11.55
2023-01-29T17:32:17.309Z,12.47
2023-01-29T17:37:25.334Z,10.57
2023-01-29T17:42:31.420Z,11.60
2023-01-29T17:47:36.803Z,11.83
2023-01-29T17:52:45.383Z,11.57
2023-01-29T17:57:51.685Z,12.27
2023-01-29T18:02:58.103Z,12.30
2023-01-29T18:08:06.187Z,12.57
2023-01-29T18:13:11.713Z,11.87
2023-01-29T18:18:23.871Z,11.60
2023-01-29T18:23:32.695Z,12.07
2023-01-29T18:28:38.257Z,12.75
2023-01-29T18:33:51.692Z,12.93
2023-01-29T18:39:04.394Z,12.57
2023-01-29T18:44:09.904Z,12.02
2023-01-29T18:49:18.239Z,11.13
2023-01-29T18:54:29.807Z,12.73
2023-01-29T18:59:35.287Z,13.00
2023-01-29T19:04:40.924Z,10.53
2023-01-29T19:09:50.583Z,11.20
2023-01-29T19:14:57.383Z,12.17
2023-01-29T19:20:04.863Z,12.13
2023-01-29T19:25:19.774Z,11.82
2023-01-29T19:30:25.485Z,12.90
2023-01-29T19:35:32.688Z,12.55
2023-01-29T19:40:41.051Z,11.37
2023-01-29T19:45:50.131Z,12.18
2023-01-29T19:51:05.334Z,11.43
2023-01-29T19:56:19.006Z,11.50
2023-01-29T20:01:24.815Z,12.55
2023-01-29T20:06:33.544Z,12.27
2023-01-29T20:11:52.154Z,12.18
2023-01-29T20:16:59.121Z,11.15
2023-01-29T20:22:05.953Z,13.33
2023-01-29T20:27:15.137Z,12.18
2023-01-29T20:32:21.041Z,12.50
2023-01-29T20:37:27.758Z,12.23
2023-01-29T20:42:35.922Z,11.85
2023-01-29T20:47:41.430Z,11.67
2023-01-29T20:52:47.709Z,12.55
2023-01-29T20:58:05.848Z,11.37
2023-01-29T21:03:12.042Z,12.07
2023-01-29T21:08:17.617Z,11.10
2023-01-29T21:13:25.713Z,11.27
2023-01-29T21:18:32.333Z,11.57
2023-01-29T21:23:37.677Z,11.97
2023-01-29T21:28:45.484Z,12.20
2023-01-29T21:33:50.961Z,11.02
2023-01-29T21:38:56.327Z,10.63
2023-01-29T21:44:04.517Z,11.45
2023-01-29T21:49:09.972Z,10.87
2023-01-29T21:54:15.259Z,10.65
2023-01-29T21:59:24.121Z,10.80
2023-01-29T22:04:29.699Z,11.17
2023-01-29T22:09:35.050Z,10.52
2023-01-29T22:14:43.464Z,10.77
2023-01-29T22:19:49.031Z,10.10
2023-01-29T22:24:55.224Z,10.43
2023-01-29T22:30:03.177Z,10.00
2023-01-29T22:35:10.483Z,10.40
2023-01-29T22:40:17.217Z,9.87
2023-01-29T22:45:25.318Z,10.77
2023-01-29T22:50:30.618Z,10.88
2023-01-29T22:55:36.223Z,10.90
2023-01-29T23:00:44.055Z,11.23
2023-01-29T23:05:49.338Z,11.80
2023-01-29T23:10:54.673Z,13.02
2023-01-29T23:16:05.356Z,11.88
2023-01-29T23:21:11.252Z,11.50
2023-01-29T23:26:30.033Z,11.45
2023-01-29T23:31:37.912Z,11.20
2023-01-29T23:36:43.264Z,10.93
2023-01-29T23:41:48.562Z,11.75
2023-01-29T23:46:56.562Z,11.43
2023-01-29T23:52:01.984Z,11.80
2023-01-29T23:57:07.256Z,10.83
